sensor_id;sensor_type;location;lat;lon;timestamp;P1;durP1;ratioP1;P2;durP2;ratioP2
36259;SDS011;22296;50.824;5.644;2022-11-04T00:01:56;1.50;;;0.45;;
36259;SDS011;22296;50.824;5.644;2022-11-04T00:04:25;0.77;;;0.68;;
36259;SDS011;22296;50.824;5.644;2022-11-04T00:06:54;0.85;;;0.50;;
36259;SDS011;22296;50.824;5.644;2022-11-04T00:09:22;0.65;;;0.55;;
36259;SDS011;22296;50.824;5.644;2022-11-04T00:11:54;0.73;;;0.50;;
36259;SDS011;22296;50.824;5.644;2022-11-04T00:14:39;0.75;;;0.43;;
36259;SDS011;22296;50.824;5.644;2022-11-04T00:17:09;0.63;;;0.50;;
36259;SDS011;22296;50.824;5.644;2022-11-04T00:19:53;0.63;;;0.50;;
36259;SDS011;22296;50.824;5.644;2022-11-04T00:22:39;1.10;;;0.93;;
36259;SDS011;22296;50.824;5.644;2022-11-04T00:25:26;0.60;;;0.60;;
36259;SDS011;22296;50.824;5.644;2022-11-04T00:28:15;1.50;;;0.68;;
36259;SDS011;22296;50.824;5.644;2022-11-04T00:31:03;2.33;;;0.60;;
36259;SDS011;22296;50.824;5.644;2022-11-04T00:33:51;0.68;;;0.60;;
36259;SDS011;22296;50.824;5.644;2022-11-04T00:36:19;1.77;;;0.50;;
36259;SDS011;22296;50.824;5.644;2022-11-04T00:38:48;0.67;;;0.53;;
36259;SDS011;22296;50.824;5.644;2022-11-04T00:41:14;1.20;;;0.50;;
36259;SDS011;22296;50.824;5.644;2022-11-04T00:43:56;0.50;;;0.50;;
36259;SDS011;22296;50.824;5.644;2022-11-04T00:46:27;0.63;;;0.50;;
36259;SDS011;22296;50.824;5.644;2022-11-04T00:48:55;0.70;;;0.50;;
36259;SDS011;22296;50.824;5.644;2022-11-04T00:51:22;0.47;;;0.47;;
36259;SDS011;22296;50.824;5.644;2022-11-04T00:53:49;0.60;;;0.40;;
36259;SDS011;22296;50.824;5.644;2022-11-04T00:56:16;0.50;;;0.50;;
36259;SDS011;22296;50.824;5.644;2022-11-04T00:58:43;0.70;;;0.50;;
36259;SDS011;22296;50.824;5.644;2022-11-04T01:01:11;1.42;;;0.60;;
36259;SDS011;22296;50.824;5.644;2022-11-04T01:03:43;0.90;;;0.55;;
36259;SDS011;22296;50.824;5.644;2022-11-04T01:06:14;0.80;;;0.50;;
36259;SDS011;22296;50.824;5.644;2022-11-04T01:08:41;0.70;;;0.50;;
36259;SDS011;22296;50.824;5.644;2022-11-04T01:11:09;0.65;;;0.40;;
36259;SDS011;22296;50.824;5.644;2022-11-04T01:13:36;0.77;;;0.50;;
36259;SDS011;22296;50.824;5.644;2022-11-04T01:16:08;1.48;;;0.50;;
36259;SDS011;22296;50.824;5.644;2022-11-04T01:18:37;0.82;;;0.50;;
36259;SDS011;22296;50.824;5.644;2022-11-04T01:21:10;0.80;;;0.40;;
36259;SDS011;22296;50.824;5.644;2022-11-04T01:23:39;1.33;;;0.45;;
36259;SDS011;22296;50.824;5.644;2022-11-04T01:26:07;0.55;;;0.40;;
36259;SDS011;22296;50.824;5.644;2022-11-04T01:28:35;1.27;;;0.50;;
36259;SDS011;22296;50.824;5.644;2022-11-04T01:31:05;0.77;;;0.45;;
36259;SDS011;22296;50.824;5.644;2022-11-04T01:33:36;0.55;;;0.40;;
36259;SDS011;22296;50.824;5.644;2022-11-04T01:36:04;1.35;;;0.55;;
36259;SDS011;22296;50.824;5.644;2022-11-04T01:38:33;0.43;;;0.43;;
36259;SDS011;22296;50.824;5.644;2022-11-04T01:41:00;1.17;;;0.50;;
36259;SDS011;22296;50.824;5.644;2022-11-04T01:46:19;0.67;;;0.53;;
36259;SDS011;22296;50.824;5.644;2022-11-04T01:48:53;0.90;;;0.80;;
36259;SDS011;22296;50.824;5.644;2022-11-04T01:51:24;1.27;;;0.52;;
36259;SDS011;22296;50.824;5.644;2022-11-04T01:53:53;1.05;;;0.60;;
36259;SDS011;22296;50.824;5.644;2022-11-04T01:56:21;0.88;;;0.50;;
36259;SDS011;22296;50.824;5.644;2022-11-04T01:58:50;0.82;;;0.50;;
36259;SDS011;22296;50.824;5.644;2022-11-04T02:01:21;1.27;;;0.50;;
36259;SDS011;22296;50.824;5.644;2022-11-04T02:03:56;0.70;;;0.50;;
36259;SDS011;22296;50.824;5.644;2022-11-04T02:06:47;0.98;;;0.63;;
36259;SDS011;22296;50.824;5.644;2022-11-04T02:09:15;0.57;;;0.35;;
36259;SDS011;22296;50.824;5.644;2022-11-04T02:11:49;0.77;;;0.43;;
36259;SDS011;22296;50.824;5.644;2022-11-04T02:14:35;0.90;;;0.47;;
36259;SDS011;22296;50.824;5.644;2022-11-04T02:30:51;0.98;;;0.50;;
36259;SDS011;22296;50.824;5.644;2022-11-04T02:33:33;0.75;;;0.60;;
36259;SDS011;22296;50.824;5.644;2022-11-04T02:36:20;1.02;;;0.50;;
36259;SDS011;22296;50.824;5.644;2022-11-04T02:39:04;0.60;;;0.47;;
36259;SDS011;22296;50.824;5.644;2022-11-04T02:41:52;0.95;;;0.68;;
36259;SDS011;22296;50.824;5.644;2022-11-04T02:44:26;0.82;;;0.40;;
36259;SDS011;22296;50.824;5.644;2022-11-04T02:49:54;0.85;;;0.60;;
36259;SDS011;22296;50.824;5.644;2022-11-04T02:52:35;1.48;;;0.57;;
36259;SDS011;22296;50.824;5.644;2022-11-04T02:55:16;0.70;;;0.50;;
36259;SDS011;22296;50.824;5.644;2022-11-04T02:57:49;0.52;;;0.40;;
36259;SDS011;22296;50.824;5.644;2022-11-04T03:00:20;0.60;;;0.35;;
36259;SDS011;22296;50.824;5.644;2022-11-04T03:02:51;0.95;;;0.50;;
36259;SDS011;22296;50.824;5.644;2022-11-04T03:05:20;1.55;;;0.60;;
36259;SDS011;22296;50.824;5.644;2022-11-04T03:07:52;0.60;;;0.40;;
36259;SDS011;22296;50.824;5.644;2022-11-04T03:10:44;0.73;;;0.50;;
36259;SDS011;22296;50.824;5.644;2022-11-04T03:13:15;1.42;;;0.50;;
36259;SDS011;22296;50.824;5.644;2022-11-04T03:15:48;1.33;;;0.40;;
36259;SDS011;22296;50.824;5.644;2022-11-04T03:18:22;1.40;;;0.43;;
36259;SDS011;22296;50.824;5.644;2022-11-04T03:21:02;0.90;;;0.50;;
36259;SDS011;22296;50.824;5.644;2022-11-04T03:23:32;0.88;;;0.40;;
36259;SDS011;22296;50.824;5.644;2022-11-04T03:26:06;0.80;;;0.60;;
36259;SDS011;22296;50.824;5.644;2022-11-04T03:28:43;1.85;;;0.60;;
36259;SDS011;22296;50.824;5.644;2022-11-04T03:31:20;0.68;;;0.40;;
36259;SDS011;22296;50.824;5.644;2022-11-04T03:33:52;1.00;;;0.47;;
36259;SDS011;22296;50.824;5.644;2022-11-04T03:36:21;0.80;;;0.40;;
36259;SDS011;22296;50.824;5.644;2022-11-04T03:38:49;0.70;;;0.60;;
36259;SDS011;22296;50.824;5.644;2022-11-04T03:44:14;1.80;;;0.43;;
36259;SDS011;22296;50.824;5.644;2022-11-04T03:46:41;1.15;;;0.40;;
36259;SDS011;22296;50.824;5.644;2022-11-04T03:49:08;1.20;;;0.50;;
36259;SDS011;22296;50.824;5.644;2022-11-04T03:51:36;0.67;;;0.40;;
36259;SDS011;22296;50.824;5.644;2022-11-04T03:54:03;0.63;;;0.50;;
36259;SDS011;22296;50.824;5.644;2022-11-04T04:02:16;1.13;;;0.60;;
36259;SDS011;22296;50.824;5.644;2022-11-04T04:05:09;1.30;;;0.47;;
36259;SDS011;22296;50.824;5.644;2022-11-04T04:07:46;1.52;;;0.50;;
36259;SDS011;22296;50.824;5.644;2022-11-04T04:10:38;1.23;;;0.50;;
36259;SDS011;22296;50.824;5.644;2022-11-04T04:13:12;1.00;;;0.40;;
36259;SDS011;22296;50.824;5.644;2022-11-04T04:16:05;0.40;;;0.30;;
36259;SDS011;22296;50.824;5.644;2022-11-04T04:21:11;0.50;;;0.30;;
36259;SDS011;22296;50.824;5.644;2022-11-04T04:23:41;0.80;;;0.40;;
36259;SDS011;22296;50.824;5.644;2022-11-04T04:26:30;0.50;;;0.47;;
36259;SDS011;22296;50.824;5.644;2022-11-04T04:29:18;1.08;;;0.55;;
36259;SDS011;22296;50.824;5.644;2022-11-04T04:31:46;0.63;;;0.47;;
36259;SDS011;22296;50.824;5.644;2022-11-04T04:34:24;0.52;;;0.30;;
36259;SDS011;22296;50.824;5.644;2022-11-04T04:39:47;1.35;;;0.47;;
36259;SDS011;22296;50.824;5.644;2022-11-04T04:42:36;0.80;;;0.40;;
36259;SDS011;22296;50.824;5.644;2022-11-04T04:47:52;2.13;;;0.50;;
36259;SDS011;22296;50.824;5.644;2022-11-04T04:50:19;0.55;;;0.30;;
36259;SDS011;22296;50.824;5.644;2022-11-04T04:52:48;0.50;;;0.43;;
36259;SDS011;22296;50.824;5.644;2022-11-04T04:55:19;1.75;;;0.65;;
36259;SDS011;22296;50.824;5.644;2022-11-04T04:57:45;0.90;;;0.55;;
36259;SDS011;22296;50.824;5.644;2022-11-04T05:00:17;1.70;;;0.47;;
36259;SDS011;22296;50.824;5.644;2022-11-04T05:02:45;0.40;;;0.30;;
36259;SDS011;22296;50.824;5.644;2022-11-04T05:05:12;1.27;;;0.40;;
36259;SDS011;22296;50.824;5.644;2022-11-04T05:07:42;1.10;;;0.60;;
36259;SDS011;22296;50.824;5.644;2022-11-04T05:10:09;1.85;;;0.73;;
36259;SDS011;22296;50.824;5.644;2022-11-04T05:12:38;0.75;;;0.50;;
36259;SDS011;22296;50.824;5.644;2022-11-04T05:15:24;3.15;;;0.50;;
36259;SDS011;22296;50.824;5.644;2022-11-04T05:17:52;1.33;;;0.45;;
36259;SDS011;22296;50.824;5.644;2022-11-04T05:20:23;1.48;;;0.55;;
36259;SDS011;22296;50.824;5.644;2022-11-04T05:22:50;1.35;;;0.50;;
36259;SDS011;22296;50.824;5.644;2022-11-04T05:25:17;0.77;;;0.40;;
36259;SDS011;22296;50.824;5.644;2022-11-04T05:27:43;1.60;;;0.60;;
36259;SDS011;22296;50.824;5.644;2022-11-04T05:30:10;2.35;;;0.70;;
36259;SDS011;22296;50.824;5.644;2022-11-04T05:32:37;0.82;;;0.60;;
36259;SDS011;22296;50.824;5.644;2022-11-04T05:35:04;1.23;;;0.70;;
36259;SDS011;22296;50.824;5.644;2022-11-04T05:37:31;0.65;;;0.50;;
36259;SDS011;22296;50.824;5.644;2022-11-04T05:39:58;2.38;;;0.68;;
36259;SDS011;22296;50.824;5.644;2022-11-04T05:42:24;1.70;;;0.90;;
36259;SDS011;22296;50.824;5.644;2022-11-04T05:44:52;2.58;;;0.80;;
36259;SDS011;22296;50.824;5.644;2022-11-04T05:47:19;3.17;;;1.02;;
36259;SDS011;22296;50.824;5.644;2022-11-04T05:49:46;1.08;;;0.63;;
36259;SDS011;22296;50.824;5.644;2022-11-04T05:52:12;1.25;;;0.50;;
36259;SDS011;22296;50.824;5.644;2022-11-04T05:54:39;2.42;;;1.02;;
36259;SDS011;22296;50.824;5.644;2022-11-04T05:57:06;1.98;;;0.70;;
36259;SDS011;22296;50.824;5.644;2022-11-04T05:59:32;1.05;;;0.77;;
36259;SDS011;22296;50.824;5.644;2022-11-04T06:01:59;1.40;;;0.80;;
36259;SDS011;22296;50.824;5.644;2022-11-04T06:04:26;2.90;;;0.93;;
36259;SDS011;22296;50.824;5.644;2022-11-04T06:06:53;1.77;;;0.75;;
36259;SDS011;22296;50.824;5.644;2022-11-04T06:09:20;1.80;;;1.00;;
36259;SDS011;22296;50.824;5.644;2022-11-04T06:12:10;1.23;;;0.98;;
36259;SDS011;22296;50.824;5.644;2022-11-04T06:14:42;2.78;;;0.90;;
36259;SDS011;22296;50.824;5.644;2022-11-04T06:17:19;0.80;;;0.60;;
36259;SDS011;22296;50.824;5.644;2022-11-04T06:19:47;2.17;;;0.90;;
36259;SDS011;22296;50.824;5.644;2022-11-04T06:22:14;1.77;;;0.90;;
36259;SDS011;22296;50.824;5.644;2022-11-04T06:24:43;2.03;;;0.82;;
36259;SDS011;22296;50.824;5.644;2022-11-04T06:27:09;1.50;;;0.80;;
36259;SDS011;22296;50.824;5.644;2022-11-04T06:29:37;1.35;;;0.80;;
36259;SDS011;22296;50.824;5.644;2022-11-04T06:32:08;2.53;;;0.82;;
36259;SDS011;22296;50.824;5.644;2022-11-04T06:34:36;2.25;;;0.80;;
36259;SDS011;22296;50.824;5.644;2022-11-04T06:37:03;1.70;;;0.80;;
36259;SDS011;22296;50.824;5.644;2022-11-04T06:39:30;1.77;;;0.80;;
36259;SDS011;22296;50.824;5.644;2022-11-04T06:41:56;1.40;;;0.90;;
36259;SDS011;22296;50.824;5.644;2022-11-04T06:44:27;2.85;;;0.70;;
36259;SDS011;22296;50.824;5.644;2022-11-04T06:46:54;1.10;;;0.70;;
36259;SDS011;22296;50.824;5.644;2022-11-04T06:49:21;1.95;;;0.90;;
36259;SDS011;22296;50.824;5.644;2022-11-04T06:51:48;1.70;;;0.80;;
36259;SDS011;22296;50.824;5.644;2022-11-04T06:54:15;1.48;;;0.80;;
36259;SDS011;22296;50.824;5.644;2022-11-04T06:56:43;3.47;;;0.93;;
36259;SDS011;22296;50.824;5.644;2022-11-04T06:59:12;1.23;;;0.88;;
36259;SDS011;22296;50.824;5.644;2022-11-04T07:01:42;1.75;;;1.05;;
36259;SDS011;22296;50.824;5.644;2022-11-04T07:04:08;0.95;;;0.73;;
36259;SDS011;22296;50.824;5.644;2022-11-04T07:06:35;1.27;;;0.95;;
36259;SDS011;22296;50.824;5.644;2022-11-04T07:09:08;1.42;;;0.80;;
36259;SDS011;22296;50.824;5.644;2022-11-04T07:11:36;1.40;;;0.77;;
36259;SDS011;22296;50.824;5.644;2022-11-04T07:14:03;1.35;;;0.93;;
36259;SDS011;22296;50.824;5.644;2022-11-04T07:16:30;2.42;;;0.88;;
36259;SDS011;22296;50.824;5.644;2022-11-04T07:18:57;1.60;;;1.08;;
36259;SDS011;22296;50.824;5.644;2022-11-04T07:21:23;2.10;;;0.90;;
36259;SDS011;22296;50.824;5.644;2022-11-04T07:23:51;1.58;;;0.98;;
36259;SDS011;22296;50.824;5.644;2022-11-04T07:26:17;1.05;;;0.80;;
36259;SDS011;22296;50.824;5.644;2022-11-04T07:28:45;2.25;;;0.75;;
36259;SDS011;22296;50.824;5.644;2022-11-04T07:31:12;1.23;;;0.80;;
36259;SDS011;22296;50.824;5.644;2022-11-04T07:33:40;1.65;;;1.00;;
36259;SDS011;22296;50.824;5.644;2022-11-04T07:36:07;1.80;;;0.90;;
36259;SDS011;22296;50.824;5.644;2022-11-04T07:38:37;1.70;;;0.80;;
36259;SDS011;22296;50.824;5.644;2022-11-04T07:41:03;1.23;;;0.82;;
36259;SDS011;22296;50.824;5.644;2022-11-04T07:43:30;2.08;;;1.00;;
36259;SDS011;22296;50.824;5.644;2022-11-04T07:46:00;2.25;;;0.90;;
36259;SDS011;22296;50.824;5.644;2022-11-04T07:48:29;3.13;;;1.20;;
36259;SDS011;22296;50.824;5.644;2022-11-04T07:50:56;2.83;;;1.10;;
36259;SDS011;22296;50.824;5.644;2022-11-04T07:53:28;2.17;;;0.90;;
36259;SDS011;22296;50.824;5.644;2022-11-04T07:55:56;1.52;;;0.98;;
36259;SDS011;22296;50.824;5.644;2022-11-04T07:58:23;1.65;;;0.77;;
36259;SDS011;22296;50.824;5.644;2022-11-04T08:00:56;1.40;;;1.08;;
36259;SDS011;22296;50.824;5.644;2022-11-04T08:03:28;1.63;;;0.88;;
36259;SDS011;22296;50.824;5.644;2022-11-04T08:05:56;2.03;;;1.02;;
36259;SDS011;22296;50.824;5.644;2022-11-04T08:08:23;1.57;;;0.97;;
36259;SDS011;22296;50.824;5.644;2022-11-04T08:10:51;2.33;;;0.90;;
36259;SDS011;22296;50.824;5.644;2022-11-04T08:13:28;1.98;;;0.98;;
36259;SDS011;22296;50.824;5.644;2022-11-04T08:15:59;1.23;;;0.80;;
36259;SDS011;22296;50.824;5.644;2022-11-04T08:18:29;2.13;;;0.98;;
36259;SDS011;22296;50.824;5.644;2022-11-04T08:20:57;2.05;;;1.00;;
36259;SDS011;22296;50.824;5.644;2022-11-04T08:23:24;2.35;;;0.90;;
36259;SDS011;22296;50.824;5.644;2022-11-04T08:25:55;1.27;;;0.80;;
36259;SDS011;22296;50.824;5.644;2022-11-04T08:28:22;2.28;;;1.10;;
36259;SDS011;22296;50.824;5.644;2022-11-04T08:33:23;1.20;;;0.90;;
36259;SDS011;22296;50.824;5.644;2022-11-04T08:35:52;2.40;;;1.00;;
36259;SDS011;22296;50.824;5.644;2022-11-04T08:38:24;1.70;;;0.88;;
36259;SDS011;22296;50.824;5.644;2022-11-04T08:40:50;1.85;;;0.98;;
36259;SDS011;22296;50.824;5.644;2022-11-04T08:43:25;2.38;;;0.98;;
36259;SDS011;22296;50.824;5.644;2022-11-04T08:45:52;1.20;;;0.95;;
36259;SDS011;22296;50.824;5.644;2022-11-04T08:48:18;3.95;;;1.23;;
36259;SDS011;22296;50.824;5.644;2022-11-04T08:50:49;1.67;;;0.98;;
36259;SDS011;22296;50.824;5.644;2022-11-04T08:53:17;3.63;;;1.10;;
36259;SDS011;22296;50.824;5.644;2022-11-04T08:55:44;4.35;;;0.82;;
36259;SDS011;22296;50.824;5.644;2022-11-04T08:58:11;1.40;;;0.88;;
36259;SDS011;22296;50.824;5.644;2022-11-04T09:00:38;1.67;;;0.90;;
36259;SDS011;22296;50.824;5.644;2022-11-04T09:03:05;1.42;;;0.80;;
36259;SDS011;22296;50.824;5.644;2022-11-04T09:05:32;2.25;;;1.02;;
36259;SDS011;22296;50.824;5.644;2022-11-04T09:08:01;1.50;;;1.05;;
36259;SDS011;22296;50.824;5.644;2022-11-04T09:10:30;3.33;;;1.30;;
36259;SDS011;22296;50.824;5.644;2022-11-04T09:12:56;1.73;;;0.88;;
36259;SDS011;22296;50.824;5.644;2022-11-04T09:15:23;1.50;;;0.90;;
36259;SDS011;22296;50.824;5.644;2022-11-04T09:17:50;1.75;;;0.90;;
36259;SDS011;22296;50.824;5.644;2022-11-04T09:20:16;2.63;;;1.33;;
36259;SDS011;22296;50.824;5.644;2022-11-04T09:22:43;1.38;;;0.80;;
36259;SDS011;22296;50.824;5.644;2022-11-04T09:25:11;2.05;;;0.90;;
36259;SDS011;22296;50.824;5.644;2022-11-04T09:27:38;1.23;;;0.60;;
36259;SDS011;22296;50.824;5.644;2022-11-04T09:30:05;1.45;;;0.80;;
36259;SDS011;22296;50.824;5.644;2022-11-04T09:32:32;2.25;;;0.90;;
36259;SDS011;22296;50.824;5.644;2022-11-04T09:34:58;2.08;;;1.00;;
36259;SDS011;22296;50.824;5.644;2022-11-04T09:37:25;1.27;;;0.82;;
36259;SDS011;22296;50.824;5.644;2022-11-04T09:39:52;1.27;;;0.80;;
36259;SDS011;22296;50.824;5.644;2022-11-04T09:42:23;1.95;;;0.80;;
36259;SDS011;22296;50.824;5.644;2022-11-04T09:45:06;1.33;;;0.90;;
36259;SDS011;22296;50.824;5.644;2022-11-04T09:47:53;1.65;;;0.77;;
36259;SDS011;22296;50.824;5.644;2022-11-04T09:50:26;2.03;;;0.80;;
36259;SDS011;22296;50.824;5.644;2022-11-04T09:58:25;1.55;;;0.80;;
36259;SDS011;22296;50.824;5.644;2022-11-04T10:01:00;1.88;;;0.93;;
36259;SDS011;22296;50.824;5.644;2022-11-04T10:03:45;1.02;;;0.90;;
36259;SDS011;22296;50.824;5.644;2022-11-04T10:15:40;1.40;;;0.80;;
36259;SDS011;22296;50.824;5.644;2022-11-04T10:20:58;0.88;;;0.70;;
36259;SDS011;22296;50.824;5.644;2022-11-04T10:23:43;0.77;;;0.73;;
36259;SDS011;22296;50.824;5.644;2022-11-04T10:26:50;1.30;;;0.82;;
36259;SDS011;22296;50.824;5.644;2022-11-04T10:32:04;1.83;;;0.70;;
36259;SDS011;22296;50.824;5.644;2022-11-04T10:34:52;1.58;;;1.00;;
36259;SDS011;22296;50.824;5.644;2022-11-04T10:37:23;1.48;;;0.85;;
36259;SDS011;22296;50.824;5.644;2022-11-04T10:39:52;1.75;;;0.90;;
36259;SDS011;22296;50.824;5.644;2022-11-04T10:42:26;1.70;;;0.80;;
36259;SDS011;22296;50.824;5.644;2022-11-04T10:44:53;1.60;;;0.95;;
36259;SDS011;22296;50.824;5.644;2022-11-04T10:53:13;0.95;;;0.70;;
36259;SDS011;22296;50.824;5.644;2022-11-04T10:55:46;1.85;;;1.00;;
36259;SDS011;22296;50.824;5.644;2022-11-04T10:58:22;1.45;;;0.73;;
36259;SDS011;22296;50.824;5.644;2022-11-04T11:00:52;2.35;;;1.13;;
36259;SDS011;22296;50.824;5.644;2022-11-04T11:03:27;1.48;;;1.10;;
36259;SDS011;22296;50.824;5.644;2022-11-04T11:08:55;2.72;;;0.90;;
36259;SDS011;22296;50.824;5.644;2022-11-04T11:11:36;1.30;;;0.80;;
36259;SDS011;22296;50.824;5.644;2022-11-04T11:14:03;1.25;;;0.70;;
36259;SDS011;22296;50.824;5.644;2022-11-04T11:16:30;4.10;;;1.30;;
36259;SDS011;22296;50.824;5.644;2022-11-04T11:21:43;1.80;;;1.00;;
36259;SDS011;22296;50.824;5.644;2022-11-04T11:24:15;1.52;;;0.90;;
36259;SDS011;22296;50.824;5.644;2022-11-04T11:26:45;1.30;;;0.82;;
36259;SDS011;22296;50.824;5.644;2022-11-04T11:31:47;1.83;;;1.10;;
36259;SDS011;22296;50.824;5.644;2022-11-04T11:34:16;1.35;;;0.85;;
36259;SDS011;22296;50.824;5.644;2022-11-04T11:36:48;1.05;;;0.90;;
36259;SDS011;22296;50.824;5.644;2022-11-04T11:39:19;1.00;;;0.70;;
36259;SDS011;22296;50.824;5.644;2022-11-04T11:47:18;2.72;;;1.05;;
36259;SDS011;22296;50.824;5.644;2022-11-04T11:50:03;1.65;;;0.90;;
36259;SDS011;22296;50.824;5.644;2022-11-04T11:52:41;2.22;;;1.17;;
36259;SDS011;22296;50.824;5.644;2022-11-04T11:55:26;1.35;;;0.70;;
36259;SDS011;22296;50.824;5.644;2022-11-04T12:01:38;1.95;;;0.88;;
36259;SDS011;22296;50.824;5.644;2022-11-04T12:04:08;1.33;;;0.73;;
36259;SDS011;22296;50.824;5.644;2022-11-04T12:07:11;1.80;;;1.08;;
36259;SDS011;22296;50.824;5.644;2022-11-04T12:13:29;1.13;;;0.60;;
36259;SDS011;22296;50.824;5.644;2022-11-04T12:21:46;1.45;;;0.80;;
36259;SDS011;22296;50.824;5.644;2022-11-04T12:26:53;2.67;;;1.00;;
36259;SDS011;22296;50.824;5.644;2022-11-04T12:32:26;1.20;;;0.70;;
36259;SDS011;22296;50.824;5.644;2022-11-04T12:52:14;1.25;;;0.73;;
36259;SDS011;22296;50.824;5.644;2022-11-04T13:00:56;1.10;;;0.82;;
36259;SDS011;22296;50.824;5.644;2022-11-04T13:03:43;1.20;;;0.70;;
36259;SDS011;22296;50.824;5.644;2022-11-04T13:06:25;1.58;;;0.70;;
36259;SDS011;22296;50.824;5.644;2022-11-04T13:09:01;1.10;;;0.70;;
36259;SDS011;22296;50.824;5.644;2022-11-04T13:11:30;1.10;;;0.70;;
36259;SDS011;22296;50.824;5.644;2022-11-04T13:16:45;0.82;;;0.60;;
36259;SDS011;22296;50.824;5.644;2022-11-04T13:19:19;1.80;;;0.88;;
36259;SDS011;22296;50.824;5.644;2022-11-04T13:21:50;1.55;;;0.82;;
36259;SDS011;22296;50.824;5.644;2022-11-04T13:24:21;1.13;;;0.75;;
36259;SDS011;22296;50.824;5.644;2022-11-04T13:26:57;1.80;;;0.93;;
36259;SDS011;22296;50.824;5.644;2022-11-04T13:29:29;1.20;;;0.70;;
36259;SDS011;22296;50.824;5.644;2022-11-04T13:37:31;1.17;;;0.80;;
36259;SDS011;22296;50.824;5.644;2022-11-04T13:40:09;1.40;;;0.75;;
36259;SDS011;22296;50.824;5.644;2022-11-04T13:45:55;1.35;;;0.82;;
36259;SDS011;22296;50.824;5.644;2022-11-04T13:48:26;0.60;;;0.57;;
36259;SDS011;22296;50.824;5.644;2022-11-04T13:51:00;1.40;;;0.68;;
36259;SDS011;22296;50.824;5.644;2022-11-04T13:53:50;1.48;;;0.60;;
36259;SDS011;22296;50.824;5.644;2022-11-04T14:01:49;0.98;;;0.88;;
36259;SDS011;22296;50.824;5.644;2022-11-04T14:04:44;0.93;;;0.70;;
36259;SDS011;22296;50.824;5.644;2022-11-04T14:07:13;1.08;;;0.60;;
36259;SDS011;22296;50.824;5.644;2022-11-04T14:17:56;1.73;;;0.80;;
36259;SDS011;22296;50.824;5.644;2022-11-04T14:20:26;0.75;;;0.60;;
36259;SDS011;22296;50.824;5.644;2022-11-04T14:22:55;1.65;;;0.90;;
36259;SDS011;22296;50.824;5.644;2022-11-04T14:25:41;1.27;;;1.00;;
36259;SDS011;22296;50.824;5.644;2022-11-04T14:28:26;1.83;;;0.80;;
36259;SDS011;22296;50.824;5.644;2022-11-04T14:30:56;1.08;;;0.70;;
36259;SDS011;22296;50.824;5.644;2022-11-04T14:43:54;1.70;;;0.70;;
36259;SDS011;22296;50.824;5.644;2022-11-04T14:46:27;1.23;;;0.90;;
36259;SDS011;22296;50.824;5.644;2022-11-04T14:48:57;1.58;;;0.70;;
36259;SDS011;22296;50.824;5.644;2022-11-04T14:51:28;0.95;;;0.70;;
36259;SDS011;22296;50.824;5.644;2022-11-04T14:54:09;0.93;;;0.68;;
36259;SDS011;22296;50.824;5.644;2022-11-04T14:56:36;1.17;;;0.70;;
36259;SDS011;22296;50.824;5.644;2022-11-04T14:59:04;1.02;;;0.82;;
36259;SDS011;22296;50.824;5.644;2022-11-04T15:01:33;1.07;;;0.77;;
36259;SDS011;22296;50.824;5.644;2022-11-04T15:04:04;0.70;;;0.60;;
36259;SDS011;22296;50.824;5.644;2022-11-04T15:06:39;1.10;;;0.70;;
36259;SDS011;22296;50.824;5.644;2022-11-04T15:09:23;0.85;;;0.80;;
36259;SDS011;22296;50.824;5.644;2022-11-04T15:14:55;1.42;;;0.70;;
36259;SDS011;22296;50.824;5.644;2022-11-04T15:17:23;1.05;;;0.80;;
36259;SDS011;22296;50.824;5.644;2022-11-04T15:19:55;0.80;;;0.60;;
36259;SDS011;22296;50.824;5.644;2022-11-04T15:22:26;2.58;;;1.10;;
36259;SDS011;22296;50.824;5.644;2022-11-04T15:24:54;2.05;;;0.70;;
36259;SDS011;22296;50.824;5.644;2022-11-04T15:27:27;1.25;;;0.70;;
36259;SDS011;22296;50.824;5.644;2022-11-04T15:29:58;2.73;;;0.97;;
36259;SDS011;22296;50.824;5.644;2022-11-04T15:32:28;0.98;;;0.70;;
36259;SDS011;22296;50.824;5.644;2022-11-04T15:34:54;2.35;;;0.70;;
36259;SDS011;22296;50.824;5.644;2022-11-04T15:37:22;1.77;;;0.70;;
36259;SDS011;22296;50.824;5.644;2022-11-04T15:39:52;0.90;;;0.73;;
36259;SDS011;22296;50.824;5.644;2022-11-04T15:42:22;1.38;;;0.70;;
36259;SDS011;22296;50.824;5.644;2022-11-04T15:47:47;1.42;;;0.70;;
36259;SDS011;22296;50.824;5.644;2022-11-04T15:50:20;1.27;;;0.80;;
36259;SDS011;22296;50.824;5.644;2022-11-04T15:52:52;1.05;;;0.70;;
36259;SDS011;22296;50.824;5.644;2022-11-04T15:55:24;2.35;;;0.90;;
36259;SDS011;22296;50.824;5.644;2022-11-04T15:57:52;0.70;;;0.70;;
36259;SDS011;22296;50.824;5.644;2022-11-04T16:00:24;1.60;;;0.77;;
36259;SDS011;22296;50.824;5.644;2022-11-04T16:02:56;0.80;;;0.60;;
36259;SDS011;22296;50.824;5.644;2022-11-04T16:05:26;1.23;;;0.60;;
36259;SDS011;22296;50.824;5.644;2022-11-04T16:07:55;1.08;;;0.88;;
36259;SDS011;22296;50.824;5.644;2022-11-04T16:15:44;1.35;;;0.80;;
36259;SDS011;22296;50.824;5.644;2022-11-04T16:18:20;1.45;;;0.90;;
36259;SDS011;22296;50.824;5.644;2022-11-04T16:20:51;1.00;;;0.63;;
36259;SDS011;22296;50.824;5.644;2022-11-04T16:23:20;1.00;;;0.80;;
36259;SDS011;22296;50.824;5.644;2022-11-04T16:25:57;0.77;;;0.70;;
36259;SDS011;22296;50.824;5.644;2022-11-04T16:28:29;1.10;;;0.90;;
36259;SDS011;22296;50.824;5.644;2022-11-04T16:31:04;1.38;;;0.70;;
36259;SDS011;22296;50.824;5.644;2022-11-04T16:33:47;0.75;;;0.70;;
36259;SDS011;22296;50.824;5.644;2022-11-04T16:36:14;1.50;;;0.85;;
36259;SDS011;22296;50.824;5.644;2022-11-04T16:38:57;1.30;;;0.95;;
36259;SDS011;22296;50.824;5.644;2022-11-04T16:41:26;1.02;;;0.85;;
36259;SDS011;22296;50.824;5.644;2022-11-04T16:43:56;1.08;;;0.93;;
36259;SDS011;22296;50.824;5.644;2022-11-04T16:46:23;0.95;;;0.80;;
36259;SDS011;22296;50.824;5.644;2022-11-04T16:48:50;2.25;;;0.80;;
36259;SDS011;22296;50.824;5.644;2022-11-04T16:51:18;0.93;;;0.80;;
36259;SDS011;22296;50.824;5.644;2022-11-04T16:53:58;0.70;;;0.70;;
36259;SDS011;22296;50.824;5.644;2022-11-04T16:56:24;1.15;;;1.00;;
36259;SDS011;22296;50.824;5.644;2022-11-04T16:58:52;0.88;;;0.80;;
36259;SDS011;22296;50.824;5.644;2022-11-04T17:01:19;0.68;;;0.68;;
36259;SDS011;22296;50.824;5.644;2022-11-04T17:03:46;1.60;;;0.90;;
36259;SDS011;22296;50.824;5.644;2022-11-04T17:06:14;1.05;;;0.90;;
36259;SDS011;22296;50.824;5.644;2022-11-04T17:08:41;1.50;;;0.98;;
36259;SDS011;22296;50.824;5.644;2022-11-04T17:11:09;1.88;;;1.10;;
36259;SDS011;22296;50.824;5.644;2022-11-04T17:13:36;2.22;;;1.30;;
36259;SDS011;22296;50.824;5.644;2022-11-04T17:16:04;2.33;;;1.25;;
36259;SDS011;22296;50.824;5.644;2022-11-04T17:18:32;1.37;;;1.20;;
36259;SDS011;22296;50.824;5.644;2022-11-04T17:21:01;4.55;;;1.63;;
36259;SDS011;22296;50.824;5.644;2022-11-04T17:23:32;1.65;;;1.40;;
36259;SDS011;22296;50.824;5.644;2022-11-04T17:25:59;2.10;;;1.20;;
36259;SDS011;22296;50.824;5.644;2022-11-04T17:28:26;5.53;;;1.13;;
36259;SDS011;22296;50.824;5.644;2022-11-04T17:30:53;1.73;;;1.30;;
36259;SDS011;22296;50.824;5.644;2022-11-04T17:33:19;3.53;;;1.33;;
36259;SDS011;22296;50.824;5.644;2022-11-04T17:35:47;1.48;;;1.10;;
36259;SDS011;22296;50.824;5.644;2022-11-04T17:38:16;2.20;;;1.10;;
36259;SDS011;22296;50.824;5.644;2022-11-04T17:40:43;1.65;;;1.35;;
36259;SDS011;22296;50.824;5.644;2022-11-04T17:43:28;1.40;;;1.30;;
36259;SDS011;22296;50.824;5.644;2022-11-04T17:46:14;3.00;;;1.40;;
36259;SDS011;22296;50.824;5.644;2022-11-04T17:49:00;4.32;;;1.48;;
36259;SDS011;22296;50.824;5.644;2022-11-04T17:51:29;9.47;;;1.50;;
36259;SDS011;22296;50.824;5.644;2022-11-04T17:53:56;4.27;;;1.20;;
36259;SDS011;22296;50.824;5.644;2022-11-04T17:56:23;2.58;;;1.00;;
36259;SDS011;22296;50.824;5.644;2022-11-04T17:58:51;2.10;;;1.30;;
36259;SDS011;22296;50.824;5.644;2022-11-04T18:01:19;1.63;;;1.23;;
36259;SDS011;22296;50.824;5.644;2022-11-04T18:03:49;2.55;;;1.27;;